METAR Data
IDs: Format: Raw Decoded Include TAF

Data at: 0623 UTC 23 Feb 2019

PADL 230510Z 02009KT 10SM SKC M06/M09 A3025
PADL 230408Z 02009KT 10SM SKC M06/M09 A3024
PADL 230259Z 02009KT 10SM SKC M06/M08 A3025
PADL 230219Z 04010KT 10SM SKC M04/M07 A3024
PADL 230056Z 04009KT 10SM CLR M04/M06 A3025
PADL 222248Z 05007KT 10SM SKC M04/M06 A3027
PADL 222152Z 01006KT 10SM SKC M05/M07 A3029
PADL 221956Z 01005KT 10SM SCT035 BKN100 M07/M09 A3028
PADL 221851Z 03006KT 10SM BKN035 M08/M09 A3029
PADL 221756Z 05007KT 10SM BKN030 M08/M09 A3029
PADL 221547Z 01003KT 10SM OVC031 M07/M08 A3028 RMK FZRANO NOSPECI
PADL 221451Z 05003KT 10SM OVC031 M08/M09 A3029 RMK FZRANO NOSPECI
PADL 221355Z 00000KT 10SM SKC M08/M09 A3028 RMK FZRANO NOSPECI
PADL 221255Z 00000KT 10SM SCT120 M07/M08 A3028 RMK FZRANO NOSPECI
PADL 221155Z 00000KT 10SM SKC M07/M08 A3029 RMK FZRANO NOSPECI
PADL 221055Z 00000KT 10SM BKN100 M06/M07 A3029 RMK FZRANO NOSPECI
PADL 220955Z 00000KT 10SM FEW110 M06/M07 A3029 RMK FZRANO NOSPECI
PADL 220855Z 00000KT 10SM OVC090 M04/M06 A3029 RMK FZRANO NOSPECI
PADL 220755Z 00000KT 10SM OVC090 M03/M06 A3027 RMK FZRANO NOSPECI
PADL 220647Z 33004KT 10SM OVC110 M04/M07 A3027
PADL 220553Z 25005KT 10SM BKN110 M03/M06 A3026
PADL 220304Z 24007KT 10SM SKC M02/M06 A3025
PADL 220157Z 28006G11KT 10SM CLR M01/M05 A3023
PADL 220003Z 23009KT 10SM SKC 00/M04 A3021
PADL 212155Z 24009KT 10SM SKC 00/M03 A3020
PADL 212101Z 24008KT 10SM SKC 00/M04 A3018
PADL 211956Z 22008KT 10SM CLR M02/M04 A3015